< < Back
Terminal Aerodrome Forecast


Current Version              Previous Versions:   1  2  3  4  5  6  7  8  9  

Terminal Aerodrome Forecast

240
FTUS42 KMLB 271100
TAFDAB
TAF
KDAB 271131Z 2712/2812 24003KT P6SM SKC
     FM271600 30014G21KT P6SM FEW035
     FM272300 32008KT P6SM SKC=



Latest METAR

921
SAUS80 KWBC 272100 RRB
MTRDAB
METAR KDAB 272053Z 31010KT 10SM CLR 18/03 A3018 RMK AO2 SLP220 T01830033
55006


USA.gov is the U.S. government's official web portal to all federal, state and local government web resources and services.